createdAt,value
2023-01-21T00:00:01.274Z,84.31
2023-01-21T00:01:04.625Z,83.65
2023-01-21T00:02:06.361Z,83.05
2023-01-21T00:03:09.068Z,83.48
2023-01-21T00:04:10.765Z,84.30
2023-01-21T00:05:13.381Z,84.35
2023-01-21T00:06:16.220Z,84.44
2023-01-21T00:07:17.939Z,84.14
2023-01-21T00:08:20.577Z,83.78
2023-01-21T00:09:22.292Z,83.20
2023-01-21T00:10:24.960Z,82.93
2023-01-21T00:11:26.615Z,82.83
2023-01-21T00:12:29.526Z,82.50
2023-01-21T00:13:31.182Z,85.19
2023-01-21T00:14:35.108Z,86.68
2023-01-21T00:15:38.522Z,88.63
2023-01-21T00:16:41.121Z,88.74
2023-01-21T00:17:43.946Z,87.98
2023-01-21T00:18:47.774Z,87.18
2023-01-21T00:19:49.461Z,85.60
2023-01-21T00:20:52.123Z,85.37
2023-01-21T00:21:53.767Z,85.83
2023-01-21T00:22:56.419Z,86.27
2023-01-21T00:23:58.083Z,86.62
2023-01-21T00:25:00.677Z,86.59
2023-01-21T00:26:04.367Z,85.86
2023-01-21T00:27:07.015Z,85.10
2023-01-21T00:28:08.733Z,86.01
2023-01-21T00:29:11.750Z,85.49
2023-01-21T00:30:15.248Z,84.91
2023-01-21T00:31:18.106Z,84.24
2023-01-21T00:32:19.985Z,84.28
2023-01-21T00:33:22.563Z,84.03
2023-01-21T00:34:24.274Z,83.79
2023-01-21T00:35:26.927Z,83.82
2023-01-21T00:36:29.891Z,83.71
2023-01-21T00:37:32.580Z,84.44
2023-01-21T00:38:34.915Z,84.58
2023-01-21T00:39:42.630Z,84.15
2023-01-21T00:40:44.241Z,84.33
2023-01-21T00:41:46.852Z,83.97
2023-01-21T00:42:48.555Z,83.55
2023-01-21T00:43:51.619Z,83.37
2023-01-21T00:44:53.129Z,84.49
2023-01-21T00:45:57.204Z,84.84
2023-01-21T00:46:58.798Z,85.26
2023-01-21T00:48:01.265Z,85.65
2023-01-21T00:49:03.528Z,85.74
2023-01-21T00:50:07.280Z,86.02
2023-01-21T00:51:09.898Z,85.77
2023-01-21T00:52:12.637Z,85.54
2023-01-21T00:53:14.213Z,84.83
2023-01-21T00:54:16.688Z,84.71
2023-01-21T00:55:18.229Z,84.63
2023-01-21T00:56:22.997Z,84.33
2023-01-21T00:57:24.871Z,83.84
2023-01-21T00:58:28.112Z,83.41
2023-01-21T00:59:30.133Z,83.64
2023-01-21T01:00:32.692Z,86.23
2023-01-21T01:01:38.563Z,88.34
2023-01-21T01:02:41.374Z,89.35
2023-01-21T01:03:43.767Z,90.06
2023-01-21T01:04:46.323Z,88.99
2023-01-21T01:05:47.847Z,87.98
2023-01-21T01:06:50.785Z,87.44
2023-01-21T01:07:52.444Z,87.74
2023-01-21T01:08:57.868Z,86.95
2023-01-21T01:09:59.421Z,86.29
2023-01-21T01:11:02.917Z,85.52
2023-01-21T01:12:06.794Z,85.54
2023-01-21T01:13:08.346Z,85.59
2023-01-21T01:14:10.868Z,86.71
2023-01-21T01:15:12.452Z,87.71
2023-01-21T01:16:16.539Z,88.19
2023-01-21T01:17:19.610Z,87.83
2023-01-21T01:18:22.345Z,87.52
2023-01-21T01:19:26.076Z,86.91
2023-01-21T01:20:27.671Z,86.37
2023-01-21T01:21:30.517Z,86.23
2023-01-21T01:22:32.163Z,86.27
2023-01-21T01:23:34.701Z,86.05
2023-01-21T01:24:36.238Z,85.26
2023-01-21T01:25:38.854Z,84.36
2023-01-21T01:26:44.455Z,83.88
2023-01-21T01:27:46.029Z,83.64
2023-01-21T01:28:49.137Z,83.49
2023-01-21T01:29:50.746Z,83.42
2023-01-21T01:30:55.602Z,83.49
2023-01-21T01:31:58.138Z,83.93
2023-01-21T01:33:01.224Z,83.62
2023-01-21T01:34:03.821Z,83.64
2023-01-21T01:35:05.854Z,83.68
2023-01-21T01:36:12.879Z,83.95
2023-01-21T01:37:14.493Z,83.98
2023-01-21T01:38:20.028Z,84.39
2023-01-21T01:39:22.591Z,84.81
2023-01-21T01:40:24.171Z,84.41
2023-01-21T01:41:29.855Z,84.28
2023-01-21T01:42:31.543Z,83.80
2023-01-21T01:43:54.684Z,83.98
2023-01-21T01:44:59.695Z,84.57
2023-01-21T01:46:02.248Z,84.41
2023-01-21T01:47:04.777Z,84.21
2023-01-21T01:48:12.400Z,85.01
2023-01-21T01:49:17.987Z,85.86
2023-01-21T01:50:20.363Z,87.29
2023-01-21T01:51:28.610Z,87.23
2023-01-21T01:52:30.728Z,86.54
2023-01-21T01:53:33.444Z,85.77
2023-01-21T01:54:41.126Z,85.55
2023-01-21T01:55:44.070Z,85.21
2023-01-21T01:56:50.571Z,85.26
2023-01-21T01:57:54.829Z,84.97
2023-01-21T01:58:56.530Z,84.86
2023-01-21T02:00:01.906Z,84.85
2023-01-21T02:01:03.734Z,84.54
2023-01-21T02:02:09.544Z,84.57
2023-01-21T02:03:31.558Z,84.37
2023-01-21T02:04:38.866Z,84.23
2023-01-21T02:05:42.061Z,84.32
2023-01-21T02:06:45.747Z,85.49
2023-01-21T02:07:47.692Z,86.57
2023-01-21T02:08:50.801Z,88.90
2023-01-21T02:09:53.829Z,90.09
2023-01-21T02:10:56.693Z,90.50
2023-01-21T02:11:59.577Z,90.94
2023-01-21T02:13:02.597Z,91.58
2023-01-21T02:14:05.289Z,92.19
2023-01-21T02:15:09.015Z,92.32
2023-01-21T02:16:41.624Z,93.92
2023-01-21T02:17:55.759Z,93.16
2023-01-21T02:19:14.614Z,92.06
2023-01-21T02:20:39.455Z,91.69
2023-01-21T02:21:57.452Z,94.61
2023-01-21T02:23:07.050Z,95.25
2023-01-21T02:24:50.969Z,94.78
2023-01-21T02:26:30.097Z,94.27
2023-01-21T02:27:41.002Z,93.53
2023-01-21T02:29:23.995Z,93.99
2023-01-21T02:30:43.827Z,94.61
2023-01-21T02:32:06.033Z,94.11
2023-01-21T02:33:32.437Z,95.80
2023-01-21T02:34:44.762Z,96.21
2023-01-21T02:35:54.325Z,96.45
2023-01-21T02:37:10.640Z,97.47
2023-01-21T02:38:23.017Z,97.11
2023-01-21T02:39:36.453Z,96.95
2023-01-21T02:40:46.776Z,97.69
2023-01-21T02:42:04.309Z,97.28
2023-01-21T02:43:12.588Z,97.27
2023-01-21T02:44:23.765Z,97.94
2023-01-21T02:45:34.765Z,97.81
2023-01-21T02:46:42.769Z,98.81
2023-01-21T02:47:52.098Z,99.28
2023-01-21T02:48:59.076Z,100.00
2023-01-21T02:50:06.182Z,100.00
2023-01-21T02:51:07.912Z,100.00
2023-01-21T02:52:18.880Z,100.00
2023-01-21T02:53:25.343Z,100.00
2023-01-21T02:54:49.217Z,100.00
2023-01-21T02:55:51.410Z,100.00
2023-01-21T02:56:53.954Z,100.00
2023-01-21T02:57:57.977Z,100.00
2023-01-21T02:59:03.708Z,100.00
2023-01-21T03:00:11.377Z,100.00
2023-01-21T03:01:23.297Z,100.00
2023-01-21T03:02:39.291Z,100.00
2023-01-21T03:04:03.321Z,100.00
2023-01-21T03:05:13.538Z,100.00
2023-01-21T03:06:30.206Z,100.00
2023-01-21T03:07:34.527Z,100.00
2023-01-21T03:08:45.589Z,100.00
2023-01-21T03:09:47.313Z,100.00
2023-01-21T03:10:54.131Z,100.00
2023-01-21T03:12:06.693Z,100.00
2023-01-21T03:13:35.769Z,100.00
2023-01-21T03:15:02.611Z,100.00
2023-01-21T03:16:27.607Z,100.00
2023-01-21T03:17:38.914Z,100.00
2023-01-21T03:18:46.805Z,100.00
2023-01-21T03:20:00.757Z,100.00
2023-01-21T03:21:06.776Z,100.00
2023-01-21T03:22:14.979Z,100.00
2023-01-21T03:23:20.174Z,100.00
2023-01-21T03:24:24.038Z,100.00
2023-01-21T03:25:27.679Z,100.00
2023-01-21T03:26:35.052Z,100.00
2023-01-21T03:27:39.349Z,100.00
2023-01-21T03:28:45.742Z,100.00
2023-01-21T03:29:51.518Z,100.00
2023-01-21T03:30:57.812Z,100.00
2023-01-21T03:32:04.507Z,100.00
2023-01-21T03:33:08.732Z,100.00
2023-01-21T03:34:14.920Z,100.00
2023-01-21T03:35:22.899Z,100.00
2023-01-21T03:36:36.232Z,100.00
2023-01-21T03:37:43.743Z,100.00
2023-01-21T03:38:50.647Z,100.00
2023-01-21T03:40:00.184Z,100.00
2023-01-21T03:41:07.677Z,100.00
2023-01-21T03:42:11.341Z,100.00
2023-01-21T03:43:16.637Z,100.00
2023-01-21T03:44:18.302Z,100.00
2023-01-21T03:45:30.409Z,100.00
2023-01-21T03:46:38.023Z,100.00
2023-01-21T03:47:44.619Z,100.00
2023-01-21T03:48:50.467Z,100.00
2023-01-21T03:49:58.058Z,100.00
2023-01-21T03:51:06.461Z,100.00
2023-01-21T03:52:11.484Z,100.00
2023-01-21T03:53:13.256Z,100.00
2023-01-21T03:54:16.032Z,100.00
2023-01-21T03:55:18.297Z,100.00
2023-01-21T03:56:20.786Z,100.00
2023-01-21T03:57:22.343Z,100.00
2023-01-21T03:58:24.847Z,100.00
2023-01-21T03:59:26.370Z,100.00
2023-01-21T04:00:28.931Z,100.00
2023-01-21T04:01:30.616Z,100.00
2023-01-21T04:02:33.249Z,100.00
2023-01-21T04:03:34.759Z,100.00
2023-01-21T04:04:37.444Z,100.00
2023-01-21T04:05:41.063Z,100.00
2023-01-21T04:06:44.935Z,100.00
2023-01-21T04:07:46.485Z,100.00
2023-01-21T04:08:49.847Z,100.00
2023-01-21T04:09:51.471Z,100.00
2023-01-21T04:10:54.097Z,100.00
2023-01-21T04:11:55.887Z,100.00
2023-01-21T04:12:58.470Z,100.00
2023-01-21T04:14:00.233Z,100.00
2023-01-21T04:15:05.366Z,100.00
2023-01-21T04:16:08.837Z,100.00
2023-01-21T04:17:11.717Z,100.00
2023-01-21T04:18:13.238Z,100.00
2023-01-21T04:19:15.705Z,100.00
2023-01-21T04:20:17.819Z,100.00
2023-01-21T04:21:20.650Z,100.00
2023-01-21T04:22:24.462Z,100.00
2023-01-21T04:23:26.202Z,100.00
2023-01-21T04:24:28.853Z,100.00
2023-01-21T04:25:30.558Z,100.00
2023-01-21T04:26:34.270Z,100.00
2023-01-21T04:27:36.196Z,100.00
2023-01-21T04:28:38.773Z,100.00
2023-01-21T04:29:40.380Z,100.00
2023-01-21T04:30:42.938Z,100.00
2023-01-21T04:31:46.397Z,100.00
2023-01-21T04:32:48.959Z,100.00
2023-01-21T04:33:50.483Z,100.00
2023-01-21T04:34:52.987Z,100.00
2023-01-21T04:35:57.693Z,100.00
2023-01-21T04:37:00.179Z,100.00
2023-01-21T04:38:03.460Z,100.00
2023-01-21T04:39:06.058Z,100.00
2023-01-21T04:40:08.806Z,100.00
2023-01-21T04:41:11.336Z,100.00
2023-01-21T04:42:12.937Z,100.00
2023-01-21T04:43:15.472Z,100.00
2023-01-21T04:44:17.028Z,100.00
2023-01-21T04:45:19.522Z,100.00
2023-01-21T04:46:21.065Z,100.00
2023-01-21T04:47:23.641Z,100.00
2023-01-21T04:48:25.314Z,100.00
2023-01-21T04:49:27.900Z,100.00
2023-01-21T04:50:29.518Z,100.00
2023-01-21T04:51:31.992Z,100.00
2023-01-21T04:52:33.546Z,100.00
2023-01-21T04:53:37.422Z,100.00
2023-01-21T04:54:38.958Z,100.00
2023-01-21T04:55:41.504Z,100.00
2023-01-21T04:56:43.058Z,100.00
2023-01-21T04:57:45.542Z,100.00
2023-01-21T04:58:47.046Z,100.00
2023-01-21T04:59:49.548Z,100.00
2023-01-21T05:00:51.185Z,100.00
2023-01-21T05:01:53.775Z,100.00
2023-01-21T05:02:55.370Z,100.00
2023-01-21T05:03:57.822Z,100.00
2023-01-21T05:04:59.431Z,100.00
2023-01-21T05:06:01.948Z,100.00
2023-01-21T05:07:03.528Z,100.00
2023-01-21T05:08:06.438Z,100.00
2023-01-21T05:09:09.661Z,100.00
2023-01-21T05:10:16.570Z,100.00
2023-01-21T05:11:19.819Z,100.00
2023-01-21T05:12:22.429Z,100.00
2023-01-21T05:13:24.968Z,100.00
2023-01-21T05:14:26.492Z,100.00
2023-01-21T05:15:29.164Z,100.00
2023-01-21T05:16:30.913Z,100.00
2023-01-21T05:17:33.576Z,100.00
2023-01-21T05:18:38.171Z,100.00
2023-01-21T05:19:40.666Z,100.00
2023-01-21T05:20:42.177Z,100.00
2023-01-21T05:21:44.666Z,100.00
2023-01-21T05:22:47.079Z,100.00
2023-01-21T05:23:49.548Z,100.00
2023-01-21T05:24:52.398Z,100.00
2023-01-21T05:25:54.879Z,100.00
2023-01-21T05:26:56.519Z,100.00
2023-01-21T05:27:59.040Z,100.00
2023-01-21T05:29:00.555Z,100.00
2023-01-21T05:30:03.052Z,100.00
2023-01-21T05:31:05.084Z,100.00
2023-01-21T05:32:07.951Z,100.00
2023-01-21T05:33:09.518Z,100.00
2023-01-21T05:34:12.932Z,100.00
2023-01-21T05:35:14.630Z,100.00
2023-01-21T05:36:17.250Z,100.00
2023-01-21T05:37:18.898Z,100.00
2023-01-21T05:38:21.452Z,100.00
2023-01-21T05:39:22.992Z,100.00
2023-01-21T05:40:26.841Z,100.00
2023-01-21T05:41:28.933Z,100.00
2023-01-21T05:42:31.525Z,100.00
2023-01-21T05:43:35.135Z,100.00
2023-01-21T05:44:37.779Z,100.00
2023-01-21T05:45:39.317Z,100.00
2023-01-21T05:46:41.811Z,100.00
2023-01-21T05:47:43.453Z,100.00
2023-01-21T05:48:46.046Z,100.00
2023-01-21T05:49:49.657Z,100.00
2023-01-21T05:50:52.299Z,100.00
2023-01-21T05:51:53.904Z,100.00
2023-01-21T05:52:56.414Z,100.00
2023-01-21T05:53:57.950Z,100.00
2023-01-21T05:55:02.483Z,100.00
2023-01-21T05:56:09.274Z,100.00
2023-01-21T05:57:10.851Z,100.00
2023-01-21T05:58:13.505Z,100.00
2023-01-21T05:59:15.103Z,100.00
2023-01-21T06:00:18.725Z,100.00
2023-01-21T06:01:20.600Z,100.00
2023-01-21T06:02:23.397Z,100.00
2023-01-21T06:03:26.001Z,100.00
2023-01-21T06:04:30.797Z,100.00
2023-01-21T06:05:32.431Z,100.00
2023-01-21T06:06:35.998Z,100.00
2023-01-21T06:07:37.632Z,100.00
2023-01-21T06:08:40.182Z,100.00
2023-01-21T06:09:41.680Z,100.00
2023-01-21T06:10:44.531Z,100.00
2023-01-21T06:11:47.413Z,100.00
2023-01-21T06:12:51.261Z,100.00
2023-01-21T06:13:52.830Z,100.00
2023-01-21T06:14:55.437Z,100.00
2023-01-21T06:15:57.165Z,100.00
2023-01-21T06:16:59.679Z,100.00
2023-01-21T06:18:01.462Z,100.00
2023-01-21T06:19:04.132Z,100.00
2023-01-21T06:20:07.100Z,100.00
2023-01-21T06:21:09.645Z,100.00
2023-01-21T06:22:14.580Z,100.00
2023-01-21T06:23:19.947Z,100.00
2023-01-21T06:24:24.275Z,100.00
2023-01-21T06:25:27.403Z,100.00
2023-01-21T06:26:29.026Z,100.00
2023-01-21T06:27:34.235Z,100.00
2023-01-21T06:28:35.830Z,100.00
2023-01-21T06:29:38.367Z,100.00
2023-01-21T06:30:40.867Z,100.00
2023-01-21T06:31:42.586Z,100.00
2023-01-21T06:32:45.567Z,100.00
2023-01-21T06:33:47.119Z,100.00
2023-01-21T06:34:51.249Z,100.00
2023-01-21T06:35:52.821Z,100.00
2023-01-21T06:36:55.318Z,100.00
2023-01-21T06:37:56.892Z,100.00
2023-01-21T06:38:59.480Z,100.00
2023-01-21T06:40:01.069Z,100.00
2023-01-21T06:41:04.164Z,100.00
2023-01-21T06:42:06.666Z,100.00
2023-01-21T06:43:09.608Z,100.00
2023-01-21T06:44:12.067Z,100.00
2023-01-21T06:45:14.157Z,100.00
2023-01-21T06:46:18.818Z,100.00
2023-01-21T06:47:20.380Z,100.00
2023-01-21T06:48:22.909Z,100.00
2023-01-21T06:49:24.531Z,100.00
2023-01-21T06:50:27.218Z,100.00
2023-01-21T06:51:28.846Z,100.00
2023-01-21T06:52:31.325Z,100.00
2023-01-21T06:53:32.894Z,100.00
2023-01-21T06:54:35.614Z,100.00
2023-01-21T06:55:37.227Z,100.00
2023-01-21T06:56:41.070Z,100.00
2023-01-21T06:57:43.566Z,100.00
2023-01-21T06:58:48.099Z,100.00
2023-01-21T06:59:50.663Z,100.00
2023-01-21T07:00:52.280Z,100.00
2023-01-21T07:01:55.337Z,100.00
2023-01-21T07:02:57.306Z,100.00
2023-01-21T07:04:01.302Z,100.00
2023-01-21T07:05:03.052Z,100.00
2023-01-21T07:06:05.936Z,100.00
2023-01-21T07:07:07.744Z,100.00
2023-01-21T07:08:10.480Z,100.00
2023-01-21T07:09:12.000Z,100.00
2023-01-21T07:10:14.674Z,100.00
2023-01-21T07:11:16.338Z,100.00
2023-01-21T07:12:19.017Z,100.00
2023-01-21T07:13:21.583Z,100.00
2023-01-21T07:14:24.470Z,100.00
2023-01-21T07:15:30.829Z,100.00
2023-01-21T07:16:32.424Z,100.00
2023-01-21T07:17:34.933Z,100.00
2023-01-21T07:18:36.559Z,100.00
2023-01-21T07:19:40.168Z,100.00
2023-01-21T07:20:42.463Z,100.00
2023-01-21T07:21:45.032Z,100.00
2023-01-21T07:22:46.645Z,100.00
2023-01-21T07:23:49.247Z,100.00
2023-01-21T07:24:50.841Z,100.00
2023-01-21T07:25:53.349Z,100.00
2023-01-21T07:26:56.814Z,100.00
2023-01-21T07:27:59.402Z,100.00
2023-01-21T07:29:02.116Z,100.00
2023-01-21T07:30:07.243Z,100.00
2023-01-21T07:31:09.509Z,100.00
2023-01-21T07:32:12.147Z,100.00
2023-01-21T07:33:15.237Z,100.00
2023-01-21T07:34:16.929Z,100.00
2023-01-21T07:35:19.804Z,100.00
2023-01-21T07:36:23.446Z,100.00
2023-01-21T07:37:25.946Z,100.00
2023-01-21T07:38:28.093Z,100.00
2023-01-21T07:39:30.725Z,98.66
2023-01-21T07:40:32.395Z,98.61
2023-01-21T07:41:35.128Z,98.16
2023-01-21T07:42:36.755Z,97.59
2023-01-21T07:43:39.281Z,97.17
2023-01-21T07:44:41.089Z,97.62
2023-01-21T07:45:45.239Z,98.14
2023-01-21T07:46:46.842Z,98.07
2023-01-21T07:47:49.739Z,97.93
2023-01-21T07:48:51.905Z,97.43
2023-01-21T07:49:54.683Z,97.35
2023-01-21T07:50:57.512Z,97.74
2023-01-21T07:52:00.050Z,98.58
2023-01-21T07:53:01.838Z,99.89
2023-01-21T07:54:04.515Z,100.00
2023-01-21T07:55:08.052Z,99.75
2023-01-21T07:56:13.570Z,99.88
2023-01-21T07:57:19.039Z,99.09
2023-01-21T07:58:20.646Z,98.82
2023-01-21T07:59:23.923Z,98.47
2023-01-21T08:00:27.265Z,97.68
2023-01-21T08:01:32.328Z,96.72
2023-01-21T08:02:34.120Z,96.23
2023-01-21T08:03:36.934Z,95.84
2023-01-21T08:04:38.624Z,95.46
2023-01-21T08:05:41.225Z,94.75
2023-01-21T08:06:42.828Z,94.33
2023-01-21T08:07:45.497Z,94.60
2023-01-21T08:08:48.063Z,94.53
2023-01-21T08:09:49.841Z,94.78
2023-01-21T08:10:54.721Z,94.88
2023-01-21T08:11:57.700Z,94.58
2023-01-21T08:13:01.873Z,94.42
2023-01-21T08:14:04.470Z,93.72
2023-01-21T08:15:07.694Z,93.50
2023-01-21T08:16:11.643Z,92.90
2023-01-21T08:17:14.706Z,92.31
2023-01-21T08:18:17.321Z,92.54
2023-01-21T08:19:18.936Z,92.95
2023-01-21T08:20:21.473Z,93.04
2023-01-21T08:21:23.159Z,93.15
2023-01-21T08:22:25.916Z,93.15
2023-01-21T08:23:27.522Z,92.94
2023-01-21T08:24:30.171Z,92.59
2023-01-21T08:25:32.667Z,92.25
2023-01-21T08:26:35.244Z,92.57
2023-01-21T08:27:36.762Z,92.39
2023-01-21T08:28:40.055Z,92.66
2023-01-21T08:29:42.809Z,92.57
2023-01-21T08:30:44.760Z,92.97
2023-01-21T08:31:47.360Z,93.11
2023-01-21T08:32:50.351Z,93.48
2023-01-21T08:33:53.079Z,95.01
2023-01-21T08:34:54.819Z,95.78
2023-01-21T08:36:00.693Z,96.72
2023-01-21T08:37:03.220Z,96.71
2023-01-21T08:38:05.213Z,95.63
2023-01-21T08:39:07.825Z,95.83
2023-01-21T08:40:11.649Z,95.07
2023-01-21T08:41:13.271Z,95.26
2023-01-21T08:42:15.984Z,94.92
2023-01-21T08:43:17.583Z,94.93
2023-01-21T08:44:22.098Z,94.91
2023-01-21T08:45:23.697Z,95.03
2023-01-21T08:46:26.237Z,94.88
2023-01-21T08:47:30.912Z,95.13
2023-01-21T08:48:35.102Z,95.31
2023-01-21T08:49:39.448Z,97.41
2023-01-21T08:50:41.187Z,97.96
2023-01-21T08:51:43.717Z,97.08
2023-01-21T08:52:51.569Z,97.25
2023-01-21T08:53:54.275Z,97.75
2023-01-21T08:54:55.808Z,97.17
2023-01-21T08:55:59.808Z,97.27
2023-01-21T08:57:02.321Z,97.74
2023-01-21T08:58:04.025Z,98.16
2023-01-21T08:59:07.047Z,98.38
2023-01-21T09:00:10.941Z,98.79
2023-01-21T09:01:15.310Z,98.60
2023-01-21T09:02:18.120Z,99.43
2023-01-21T09:03:19.883Z,98.70
2023-01-21T09:04:24.398Z,98.34
2023-01-21T09:05:26.295Z,98.03
2023-01-21T09:06:31.447Z,98.69
2023-01-21T09:07:33.036Z,98.24
2023-01-21T09:08:36.411Z,97.98
2023-01-21T09:09:38.327Z,98.33
2023-01-21T09:10:58.725Z,98.26
2023-01-21T09:12:01.315Z,98.59
2023-01-21T09:13:07.445Z,98.25
2023-01-21T09:14:09.990Z,98.06
2023-01-21T09:15:11.608Z,97.38
2023-01-21T09:16:15.888Z,97.37
2023-01-21T09:17:17.505Z,97.75
2023-01-21T09:18:20.096Z,98.26
2023-01-21T09:19:25.073Z,97.99
2023-01-21T09:20:26.743Z,98.18
2023-01-21T09:21:29.666Z,97.42
2023-01-21T09:22:32.155Z,97.04
2023-01-21T09:23:34.888Z,96.70
2023-01-21T09:24:37.412Z,95.36
2023-01-21T09:25:39.087Z,95.85
2023-01-21T09:26:44.266Z,95.52
2023-01-21T09:27:45.871Z,95.05
2023-01-21T09:28:53.200Z,94.63
2023-01-21T09:29:55.063Z,95.06
2023-01-21T09:30:58.843Z,96.29
2023-01-21T09:32:01.935Z,96.12
2023-01-21T09:33:03.802Z,95.38
2023-01-21T09:34:06.794Z,95.17
2023-01-21T09:35:09.815Z,95.10
2023-01-21T09:36:15.159Z,94.59
2023-01-21T09:37:17.821Z,95.00
2023-01-21T09:38:19.445Z,95.26
2023-01-21T09:39:22.002Z,95.54
2023-01-21T09:40:23.947Z,95.34
2023-01-21T09:41:29.683Z,95.03
2023-01-21T09:42:33.246Z,94.69
2023-01-21T09:43:43.424Z,94.91
2023-01-21T09:44:50.223Z,95.48
2023-01-21T09:45:54.948Z,95.60
2023-01-21T09:47:03.487Z,96.30
2023-01-21T09:48:07.352Z,97.17
2023-01-21T09:49:18.522Z,97.42
2023-01-21T09:50:23.849Z,97.46
2023-01-21T09:51:36.262Z,97.21
2023-01-21T09:52:41.151Z,96.63
2023-01-21T09:53:49.175Z,97.96
2023-01-21T09:54:51.915Z,98.48
2023-01-21T09:55:56.648Z,98.37
2023-01-21T09:57:17.891Z,97.75
2023-01-21T09:58:27.833Z,98.37
2023-01-21T09:59:41.307Z,97.84
2023-01-21T10:00:48.205Z,98.11
2023-01-21T10:01:53.244Z,97.61
2023-01-21T10:03:03.141Z,96.79
2023-01-21T10:04:30.065Z,95.83
2023-01-21T10:05:58.360Z,95.54
2023-01-21T10:07:07.253Z,95.81
2023-01-21T10:08:18.048Z,96.65
2023-01-21T10:09:26.447Z,96.22
2023-01-21T10:10:36.994Z,96.50
2023-01-21T10:11:49.451Z,96.04
2023-01-21T10:13:06.703Z,95.53
2023-01-21T10:14:25.911Z,95.57
2023-01-21T10:15:42.353Z,96.96
2023-01-21T10:16:52.522Z,96.74
2023-01-21T10:17:58.238Z,95.80
2023-01-21T10:19:04.955Z,95.17
2023-01-21T10:20:15.987Z,97.10
2023-01-21T10:21:32.007Z,96.99
2023-01-21T10:22:34.621Z,95.49
2023-01-21T10:23:43.080Z,94.63
2023-01-21T10:24:49.837Z,94.62
2023-01-21T10:25:52.662Z,95.27
2023-01-21T10:26:54.586Z,95.25
2023-01-21T10:27:59.540Z,94.70
2023-01-21T10:29:01.725Z,94.54
2023-01-21T10:30:10.436Z,94.72
2023-01-21T10:31:21.399Z,94.33
2023-01-21T10:32:26.669Z,94.72
2023-01-21T10:33:33.116Z,95.14
2023-01-21T10:34:40.334Z,95.76
2023-01-21T10:36:09.446Z,96.70
2023-01-21T10:37:24.543Z,96.62
2023-01-21T10:38:36.289Z,97.78
2023-01-21T10:39:50.180Z,97.07
2023-01-21T10:41:01.634Z,97.66
2023-01-21T10:42:20.527Z,96.76
2023-01-21T10:43:33.506Z,95.62
2023-01-21T10:44:42.491Z,94.95
2023-01-21T10:45:55.960Z,94.55
2023-01-21T10:47:09.181Z,94.32
2023-01-21T10:48:18.853Z,94.62
2023-01-21T10:49:32.934Z,93.70
2023-01-21T10:50:47.828Z,93.31
2023-01-21T10:51:55.237Z,92.23
2023-01-21T10:53:06.624Z,92.44
2023-01-21T10:54:15.988Z,92.85
2023-01-21T10:55:30.926Z,93.34
2023-01-21T10:56:43.356Z,93.99
2023-01-21T10:57:55.937Z,93.56
2023-01-21T10:59:05.054Z,93.75
2023-01-21T11:00:18.709Z,93.13
2023-01-21T11:01:25.854Z,92.39
2023-01-21T11:02:31.207Z,92.21
2023-01-21T11:03:38.962Z,92.33
2023-01-21T11:04:42.838Z,91.57
2023-01-21T11:05:50.007Z,91.30
2023-01-21T11:07:00.279Z,90.95
2023-01-21T11:08:03.463Z,91.23
2023-01-21T11:09:09.669Z,91.27
2023-01-21T11:10:17.862Z,91.16
2023-01-21T11:11:27.901Z,91.01
2023-01-21T11:12:30.877Z,91.19
2023-01-21T11:13:33.886Z,91.27
2023-01-21T11:14:35.441Z,91.34
2023-01-21T11:15:41.028Z,91.08
2023-01-21T11:16:48.696Z,92.51
2023-01-21T11:17:56.490Z,92.76
2023-01-21T11:18:58.261Z,92.65
2023-01-21T11:20:02.522Z,92.11
2023-01-21T11:21:15.327Z,92.55
2023-01-21T11:22:23.464Z,92.46
2023-01-21T11:23:29.698Z,92.61
2023-01-21T11:24:42.326Z,91.98
2023-01-21T11:25:43.972Z,91.73
2023-01-21T11:26:51.970Z,91.41
2023-01-21T11:27:54.853Z,91.60
2023-01-21T11:29:12.893Z,91.71
2023-01-21T11:30:48.772Z,91.00
2023-01-21T11:32:02.548Z,91.10
2023-01-21T11:33:25.286Z,91.90
2023-01-21T11:34:28.196Z,92.10
2023-01-21T11:35:30.349Z,91.41
2023-01-21T11:36:32.992Z,91.27
2023-01-21T11:37:36.907Z,91.08
2023-01-21T11:38:40.468Z,91.58
2023-01-21T11:39:53.109Z,92.60
2023-01-21T11:41:03.416Z,93.64
2023-01-21T11:42:08.529Z,93.32
2023-01-21T11:43:35.425Z,92.17
2023-01-21T11:44:51.932Z,92.34
2023-01-21T11:45:55.713Z,92.72
2023-01-21T11:46:58.230Z,92.40
2023-01-21T11:48:00.833Z,91.76
2023-01-21T11:49:27.570Z,91.08
2023-01-21T11:50:31.088Z,90.78
2023-01-21T11:51:33.884Z,91.17
2023-01-21T11:52:37.446Z,91.26
2023-01-21T11:53:41.160Z,91.63
2023-01-21T11:54:44.266Z,91.92
2023-01-21T11:55:49.728Z,91.68
2023-01-21T11:56:54.550Z,91.38
2023-01-21T11:57:59.006Z,91.35
2023-01-21T11:59:01.491Z,91.80
2023-01-21T12:00:19.673Z,92.55
2023-01-21T12:01:22.640Z,92.32
2023-01-21T12:02:31.893Z,92.81
2023-01-21T12:03:41.010Z,92.34
2023-01-21T12:04:46.484Z,92.66
2023-01-21T12:05:50.814Z,92.85
2023-01-21T12:06:58.011Z,92.69
2023-01-21T12:08:02.397Z,93.62
2023-01-21T12:09:07.876Z,93.93
2023-01-21T12:10:25.341Z,93.77
2023-01-21T12:11:29.603Z,93.71
2023-01-21T12:12:45.389Z,92.58
2023-01-21T12:13:57.935Z,91.61
2023-01-21T12:15:11.509Z,91.68
2023-01-21T12:16:31.567Z,90.95
2023-01-21T12:17:43.370Z,91.03
2023-01-21T12:19:03.957Z,90.93
2023-01-21T12:20:32.305Z,90.82
2023-01-21T12:21:46.527Z,90.78
2023-01-21T12:23:00.807Z,90.44
2023-01-21T12:24:14.085Z,89.85
2023-01-21T12:25:31.848Z,90.64
2023-01-21T12:26:39.056Z,90.73
2023-01-21T12:27:54.268Z,90.98
2023-01-21T12:29:20.752Z,91.70
2023-01-21T12:30:29.808Z,91.74
2023-01-21T12:31:37.263Z,91.39
2023-01-21T12:32:43.730Z,91.23
2023-01-21T12:33:50.505Z,90.53
2023-01-21T12:34:58.247Z,89.87
2023-01-21T12:36:08.420Z,90.50
2023-01-21T12:37:14.613Z,89.97
2023-01-21T12:38:24.489Z,89.99
2023-01-21T12:39:30.095Z,90.90
2023-01-21T12:40:37.774Z,91.16
2023-01-21T12:41:41.903Z,90.61
2023-01-21T12:42:49.237Z,90.04
2023-01-21T12:43:54.603Z,90.00
2023-01-21T12:45:02.012Z,90.30
2023-01-21T12:46:10.716Z,89.62
2023-01-21T12:47:24.975Z,89.31
2023-01-21T12:48:30.629Z,89.18
2023-01-21T12:49:50.388Z,88.98
2023-01-21T12:50:55.430Z,88.77
2023-01-21T12:52:04.140Z,88.50
2023-01-21T12:53:15.244Z,88.17
2023-01-21T12:54:24.609Z,87.95
2023-01-21T12:55:38.195Z,88.37
2023-01-21T12:56:44.573Z,89.61
2023-01-21T12:57:53.549Z,89.92
2023-01-21T12:59:01.039Z,89.13
2023-01-21T13:00:06.473Z,90.19
2023-01-21T13:01:14.608Z,90.89
2023-01-21T13:02:24.930Z,91.51
2023-01-21T13:03:31.127Z,91.41
2023-01-21T13:04:42.618Z,92.02
2023-01-21T13:05:51.371Z,92.35
2023-01-21T13:06:59.118Z,91.83
2023-01-21T13:08:19.254Z,91.91
2023-01-21T13:09:29.377Z,91.83
2023-01-21T13:10:38.280Z,92.63
2023-01-21T13:11:47.874Z,92.78
2023-01-21T13:12:56.879Z,92.13
2023-01-21T13:14:20.165Z,92.17
2023-01-21T13:15:25.763Z,92.19
2023-01-21T13:16:28.761Z,92.29
2023-01-21T13:17:35.160Z,93.25
2023-01-21T13:18:40.090Z,93.90
2023-01-21T13:19:42.645Z,94.03
2023-01-21T13:20:51.574Z,93.37
2023-01-21T13:22:00.389Z,92.80
2023-01-21T13:23:14.069Z,93.51
2023-01-21T13:24:21.921Z,93.45
2023-01-21T13:25:32.767Z,93.55
2023-01-21T13:26:41.342Z,93.63
2023-01-21T13:27:50.714Z,92.57
2023-01-21T13:29:02.979Z,92.62
2023-01-21T13:30:18.323Z,91.75
2023-01-21T13:31:31.616Z,92.55
2023-01-21T13:32:42.594Z,94.38
2023-01-21T13:33:56.041Z,95.05
2023-01-21T13:35:21.859Z,94.59
2023-01-21T13:36:36.847Z,93.32
2023-01-21T13:37:46.129Z,92.94
2023-01-21T13:39:02.288Z,93.61
2023-01-21T13:40:21.859Z,92.96
2023-01-21T13:41:37.053Z,93.68
2023-01-21T13:42:51.188Z,93.76
2023-01-21T13:44:14.029Z,93.70
2023-01-21T13:45:22.790Z,92.70
2023-01-21T13:46:52.626Z,92.16
2023-01-21T13:48:12.697Z,94.08
2023-01-21T13:49:47.306Z,93.73
2023-01-21T13:51:08.428Z,93.85
2023-01-21T13:52:15.061Z,93.02
2023-01-21T13:53:33.152Z,93.62
2023-01-21T13:54:53.834Z,93.02
2023-01-21T13:56:14.631Z,92.88
2023-01-21T13:57:42.768Z,92.54
2023-01-21T13:58:52.231Z,92.44
2023-01-21T13:59:57.732Z,92.34